createdAt,value
2023-01-29T00:00:21.758Z,-4.84
2023-01-29T00:01:30.196Z,-4.82
2023-01-29T00:02:22.093Z,-4.82
2023-01-29T00:03:13.825Z,-4.84
2023-01-29T00:04:05.683Z,-4.85
2023-01-29T00:04:59.152Z,-4.83
2023-01-29T00:05:51.018Z,-4.85
2023-01-29T00:06:43.872Z,-4.89
2023-01-29T00:07:35.514Z,-4.94
2023-01-29T00:08:27.567Z,-4.94
2023-01-29T00:09:19.293Z,-4.97
2023-01-29T00:10:11.640Z,-4.97
2023-01-29T00:11:06.169Z,-4.97
2023-01-29T00:11:58.086Z,-5.02
2023-01-29T00:13:09.558Z,-5.03
2023-01-29T00:14:02.188Z,-5.05
2023-01-29T00:14:55.024Z,-5.04
2023-01-29T00:15:57.764Z,-5.02
2023-01-29T00:16:49.283Z,-5.01
2023-01-29T00:17:41.083Z,-5.06
2023-01-29T00:18:32.563Z,-5.06
2023-01-29T00:19:24.429Z,-5.06
2023-01-29T00:20:16.384Z,-5.06
2023-01-29T00:21:16.833Z,-5.04
2023-01-29T00:22:08.268Z,-5.05
2023-01-29T00:23:00.170Z,-5.05
2023-01-29T00:24:00.541Z,-5.05
2023-01-29T00:24:52.254Z,-5.03
2023-01-29T00:25:44.071Z,-5.02
2023-01-29T00:26:35.626Z,-5.03
2023-01-29T00:27:27.319Z,-5.02
2023-01-29T00:28:19.010Z,-5.02
2023-01-29T00:29:10.634Z,-5.03
2023-01-29T00:30:12.094Z,-5.06
2023-01-29T00:31:11.417Z,-5.06
2023-01-29T00:32:03.794Z,-5.07
2023-01-29T00:32:55.373Z,-5.04
2023-01-29T00:33:48.627Z,-5.03
2023-01-29T00:34:40.254Z,-5.02
2023-01-29T00:35:32.462Z,-5.02
2023-01-29T00:36:26.052Z,-5.02
2023-01-29T00:37:18.571Z,-5.02
2023-01-29T00:38:10.126Z,-5.02
2023-01-29T00:39:10.346Z,-5.06
2023-01-29T00:40:01.774Z,-5.08
2023-01-29T00:41:12.022Z,-5.08
2023-01-29T00:42:22.275Z,-5.06
2023-01-29T00:43:32.271Z,-5.04
2023-01-29T00:44:42.950Z,-5.05
2023-01-29T00:45:36.857Z,-5.06
2023-01-29T00:46:28.394Z,-5.07
2023-01-29T00:47:33.208Z,-5.10
2023-01-29T00:48:24.870Z,-5.09
2023-01-29T00:49:16.576Z,-5.10
2023-01-29T00:50:11.786Z,-5.12
2023-01-29T00:51:04.001Z,-5.13
2023-01-29T00:52:14.175Z,-5.11
2023-01-29T00:53:05.869Z,-5.11
2023-01-29T00:53:58.476Z,-5.09
2023-01-29T00:54:50.921Z,-5.11
2023-01-29T00:56:02.299Z,-5.13
2023-01-29T00:56:53.918Z,-5.15
2023-01-29T00:57:45.504Z,-5.15
2023-01-29T00:58:36.914Z,-5.16
2023-01-29T00:59:28.538Z,-5.16
2023-01-29T01:00:20.555Z,-5.17
2023-01-29T01:01:12.101Z,-5.18
2023-01-29T01:02:22.063Z,-5.16
2023-01-29T01:03:15.026Z,-5.18
2023-01-29T01:04:06.985Z,-5.19
2023-01-29T01:04:58.615Z,-5.21
2023-01-29T01:05:50.261Z,-5.21
2023-01-29T01:06:42.917Z,-5.19
2023-01-29T01:07:34.341Z,-5.14
2023-01-29T01:08:44.300Z,-5.13
2023-01-29T01:09:55.275Z,-5.13
2023-01-29T01:10:46.766Z,-5.14
2023-01-29T01:11:38.227Z,-5.16
2023-01-29T01:12:30.348Z,-5.15
2023-01-29T01:13:21.763Z,-5.15
2023-01-29T01:14:13.482Z,-5.17
2023-01-29T01:15:07.572Z,-5.19
2023-01-29T01:16:00.688Z,-5.21
2023-01-29T01:16:52.306Z,-5.23
2023-01-29T01:17:43.800Z,-5.25
2023-01-29T01:18:35.273Z,-5.22
2023-01-29T01:19:26.918Z,-5.21
2023-01-29T01:20:18.949Z,-5.20
2023-01-29T01:21:10.540Z,-5.21
2023-01-29T01:22:01.989Z,-5.19
2023-01-29T01:22:54.477Z,-5.14
2023-01-29T01:23:46.105Z,-5.18
2023-01-29T01:24:38.502Z,-5.18
2023-01-29T01:25:30.123Z,-5.20
2023-01-29T01:26:21.920Z,-5.20
2023-01-29T01:27:14.182Z,-5.23
2023-01-29T01:28:06.313Z,-5.26
2023-01-29T01:28:57.942Z,-5.23
2023-01-29T01:29:49.407Z,-5.23
2023-01-29T01:30:41.370Z,-5.18
2023-01-29T01:31:32.967Z,-5.17
2023-01-29T01:32:25.947Z,-5.20
2023-01-29T01:33:17.815Z,-5.19
2023-01-29T01:34:10.281Z,-5.22
2023-01-29T01:35:01.734Z,-5.21
2023-01-29T01:35:53.234Z,-5.19
2023-01-29T01:36:46.421Z,-5.20
2023-01-29T01:37:38.682Z,-5.18
2023-01-29T01:38:30.884Z,-5.18
2023-01-29T01:39:23.789Z,-5.19
2023-01-29T01:40:19.452Z,-5.23
2023-01-29T01:41:13.607Z,-5.28
2023-01-29T01:42:11.727Z,-5.31
2023-01-29T01:43:03.494Z,-5.35
2023-01-29T01:44:01.696Z,-5.38
2023-01-29T01:44:58.220Z,-5.35
2023-01-29T01:45:50.042Z,-5.32
2023-01-29T01:46:42.624Z,-5.35
2023-01-29T01:47:43.104Z,-5.37
2023-01-29T01:48:34.968Z,-5.37
2023-01-29T01:49:26.708Z,-5.37
2023-01-29T01:50:31.749Z,-5.41
2023-01-29T01:51:28.770Z,-5.44
2023-01-29T01:52:22.019Z,-5.46
2023-01-29T01:53:30.482Z,-5.50
2023-01-29T01:54:31.874Z,-5.47
2023-01-29T01:55:28.259Z,-5.48
2023-01-29T01:56:28.381Z,-5.49
2023-01-29T01:57:26.252Z,-5.50
2023-01-29T01:58:33.249Z,-5.52
2023-01-29T01:59:24.790Z,-5.50
2023-01-29T02:00:20.584Z,-5.51
2023-01-29T02:01:12.921Z,-5.51
2023-01-29T02:02:25.841Z,-5.52
2023-01-29T02:03:40.004Z,-5.52
2023-01-29T02:04:50.232Z,-5.53
2023-01-29T02:06:01.031Z,-5.52
2023-01-29T02:07:14.131Z,-5.52
2023-01-29T02:08:24.804Z,-5.55
2023-01-29T02:09:38.692Z,-5.57
2023-01-29T02:10:39.075Z,-5.58
2023-01-29T02:11:30.644Z,-5.59
2023-01-29T02:12:23.570Z,-5.60
2023-01-29T02:13:17.843Z,-5.58
2023-01-29T02:14:09.905Z,-5.58
2023-01-29T02:15:02.431Z,-5.59
2023-01-29T02:15:53.963Z,-5.59
2023-01-29T02:16:45.829Z,-5.59
2023-01-29T02:17:38.137Z,-5.59
2023-01-29T02:18:30.522Z,-5.60
2023-01-29T02:19:52.073Z,-5.61
2023-01-29T02:21:09.641Z,-5.59
2023-01-29T02:22:25.752Z,-5.59
2023-01-29T02:23:40.073Z,-5.60
2023-01-29T02:24:34.859Z,-5.59
2023-01-29T02:25:45.217Z,-5.56
2023-01-29T02:27:14.016Z,-5.58
2023-01-29T02:28:33.012Z,-5.58
2023-01-29T02:29:42.669Z,-5.59
2023-01-29T02:30:49.550Z,-5.58
2023-01-29T02:31:50.337Z,-5.58
2023-01-29T02:32:58.672Z,-5.58
2023-01-29T02:34:15.136Z,-5.57
2023-01-29T02:35:31.865Z,-5.54
2023-01-29T02:36:47.751Z,-5.54
2023-01-29T02:37:54.355Z,-5.55
2023-01-29T02:39:01.257Z,-5.55
2023-01-29T02:40:13.541Z,-5.54
2023-01-29T02:41:12.169Z,-5.56
2023-01-29T02:42:31.271Z,-5.56
2023-01-29T02:43:38.704Z,-5.55
2023-01-29T02:44:48.592Z,-5.55
2023-01-29T02:45:55.453Z,-5.51
2023-01-29T02:47:25.551Z,-5.52
2023-01-29T02:48:22.351Z,-5.53
2023-01-29T02:49:16.538Z,-5.55
2023-01-29T02:50:22.417Z,-5.56
2023-01-29T02:51:22.084Z,-5.55
2023-01-29T02:52:21.705Z,-5.55
2023-01-29T02:53:33.094Z,-5.57
2023-01-29T02:54:52.851Z,-5.55
2023-01-29T02:55:53.708Z,-5.51
2023-01-29T02:56:58.912Z,-5.50
2023-01-29T02:58:00.448Z,-5.47
2023-01-29T02:59:00.806Z,-5.51
2023-01-29T02:59:58.735Z,-5.55
2023-01-29T03:00:55.176Z,-5.58
2023-01-29T03:02:16.520Z,-5.60
2023-01-29T03:03:28.507Z,-5.66
2023-01-29T03:04:28.644Z,-5.70
2023-01-29T03:05:32.588Z,-5.71
2023-01-29T03:06:37.616Z,-5.75
2023-01-29T03:07:44.895Z,-5.78
2023-01-29T03:08:54.091Z,-5.79
2023-01-29T03:09:51.858Z,-5.80
2023-01-29T03:10:58.287Z,-5.83
2023-01-29T03:11:55.939Z,-5.81
2023-01-29T03:12:55.581Z,-5.83
2023-01-29T03:13:51.147Z,-5.84
2023-01-29T03:15:01.500Z,-5.84
2023-01-29T03:16:02.815Z,-5.82
2023-01-29T03:17:03.682Z,-5.80
2023-01-29T03:18:02.285Z,-5.81
2023-01-29T03:19:01.916Z,-5.78
2023-01-29T03:19:54.318Z,-5.77
2023-01-29T03:20:53.762Z,-5.77
2023-01-29T03:22:04.506Z,-5.77
2023-01-29T03:23:02.675Z,-5.74
2023-01-29T03:24:16.229Z,-5.77
2023-01-29T03:25:30.848Z,-5.78
2023-01-29T03:26:41.868Z,-5.81
2023-01-29T03:28:03.593Z,-5.80
2023-01-29T03:29:23.899Z,-5.80
2023-01-29T03:30:37.936Z,-5.80
2023-01-29T03:32:08.305Z,-5.79
2023-01-29T03:33:08.533Z,-5.80
2023-01-29T03:34:18.295Z,-5.81
2023-01-29T03:35:14.342Z,-5.84
2023-01-29T03:36:15.230Z,-5.84
2023-01-29T03:37:19.383Z,-5.86
2023-01-29T03:38:11.904Z,-5.88
2023-01-29T03:39:11.605Z,-5.87
2023-01-29T03:40:07.000Z,-5.87
2023-01-29T03:41:10.278Z,-5.87
2023-01-29T03:42:19.188Z,-5.84
2023-01-29T03:43:34.562Z,-5.85
2023-01-29T03:44:44.272Z,-5.83
2023-01-29T03:46:08.294Z,-5.76
2023-01-29T03:47:24.734Z,-5.74
2023-01-29T03:48:37.318Z,-5.73
2023-01-29T03:49:57.625Z,-5.75
2023-01-29T03:51:04.900Z,-5.78
2023-01-29T03:52:21.897Z,-5.80
2023-01-29T03:53:30.534Z,-5.85
2023-01-29T03:54:43.431Z,-5.90
2023-01-29T03:55:58.239Z,-5.83
2023-01-29T03:57:03.421Z,-5.79
2023-01-29T03:58:25.183Z,-5.80
2023-01-29T03:59:33.028Z,-5.85
2023-01-29T04:00:57.697Z,-5.86
2023-01-29T04:02:01.604Z,-5.87
2023-01-29T04:03:24.221Z,-5.90
2023-01-29T04:04:24.824Z,-5.84
2023-01-29T04:05:22.641Z,-5.79
2023-01-29T04:06:39.094Z,-5.84
2023-01-29T04:07:36.565Z,-5.88
2023-01-29T04:08:34.009Z,-5.90
2023-01-29T04:09:59.129Z,-5.92
2023-01-29T04:11:04.823Z,-5.90
2023-01-29T04:12:05.796Z,-5.90
2023-01-29T04:13:06.608Z,-5.95
2023-01-29T04:14:00.051Z,-6.00
2023-01-29T04:14:55.647Z,-6.00
2023-01-29T04:15:54.347Z,-6.02
2023-01-29T04:17:01.277Z,-6.00
2023-01-29T04:18:02.815Z,-6.00
2023-01-29T04:19:21.142Z,-6.03
2023-01-29T04:20:15.001Z,-6.02
2023-01-29T04:21:07.480Z,-6.02
2023-01-29T04:22:10.705Z,-6.01
2023-01-29T04:23:02.547Z,-5.98
2023-01-29T04:23:54.519Z,-5.98
2023-01-29T04:24:49.574Z,-5.97
2023-01-29T04:25:52.573Z,-5.97
2023-01-29T04:27:01.026Z,-5.99
2023-01-29T04:28:02.257Z,-5.96
2023-01-29T04:29:33.216Z,-5.99
2023-01-29T04:30:56.870Z,-5.97
2023-01-29T04:32:10.083Z,-5.93
2023-01-29T04:33:23.822Z,-5.93
2023-01-29T04:34:31.511Z,-5.94
2023-01-29T04:35:50.650Z,-5.95
2023-01-29T04:36:59.263Z,-5.93
2023-01-29T04:38:10.270Z,-5.91
2023-01-29T04:39:04.978Z,-5.89
2023-01-29T04:40:26.670Z,-5.91
2023-01-29T04:41:51.821Z,-5.89
2023-01-29T04:43:07.261Z,-5.90
2023-01-29T04:44:08.536Z,-5.89
2023-01-29T04:45:24.612Z,-5.89
2023-01-29T04:46:31.650Z,-5.90
2023-01-29T04:47:32.314Z,-5.89
2023-01-29T04:48:59.956Z,-5.89
2023-01-29T04:50:16.112Z,-5.89
2023-01-29T04:51:11.245Z,-5.86
2023-01-29T04:52:31.882Z,-5.86
2023-01-29T04:53:52.438Z,-5.81
2023-01-29T04:55:03.247Z,-5.82
2023-01-29T04:56:06.179Z,-5.82
2023-01-29T04:57:20.053Z,-5.84
2023-01-29T04:58:32.762Z,-5.84
2023-01-29T04:59:36.240Z,-5.84
2023-01-29T05:00:36.213Z,-5.86
2023-01-29T05:01:33.558Z,-5.86
2023-01-29T05:02:28.414Z,-5.84
2023-01-29T05:03:25.864Z,-5.84
2023-01-29T05:04:21.749Z,-5.83
2023-01-29T05:05:19.831Z,-5.83
2023-01-29T05:06:13.105Z,-5.85
2023-01-29T05:07:10.048Z,-5.87
2023-01-29T05:08:04.851Z,-5.87
2023-01-29T05:08:59.376Z,-5.90
2023-01-29T05:09:52.436Z,-5.92
2023-01-29T05:10:48.539Z,-5.93
2023-01-29T05:11:42.363Z,-5.94
2023-01-29T05:12:36.918Z,-5.94
2023-01-29T05:13:34.382Z,-5.92
2023-01-29T05:14:30.465Z,-5.92
2023-01-29T05:15:30.488Z,-5.91
2023-01-29T05:16:27.762Z,-5.94
2023-01-29T05:17:20.587Z,-5.94
2023-01-29T05:18:12.144Z,-5.94
2023-01-29T05:19:03.749Z,-5.92
2023-01-29T05:19:56.968Z,-5.93
2023-01-29T05:20:50.548Z,-5.92
2023-01-29T05:21:45.929Z,-5.90
2023-01-29T05:22:41.693Z,-5.88
2023-01-29T05:23:35.015Z,-5.86
2023-01-29T05:24:26.997Z,-5.85
2023-01-29T05:25:26.209Z,-5.84
2023-01-29T05:26:36.589Z,-5.83
2023-01-29T05:27:53.509Z,-5.84
2023-01-29T05:28:45.323Z,-5.86
2023-01-29T05:29:37.338Z,-5.84
2023-01-29T05:30:28.878Z,-5.84
2023-01-29T05:31:20.485Z,-5.85
2023-01-29T05:32:12.302Z,-5.84
2023-01-29T05:33:05.324Z,-5.83
2023-01-29T05:33:56.892Z,-5.82
2023-01-29T05:34:48.351Z,-5.81
2023-01-29T05:35:39.973Z,-5.82
2023-01-29T05:36:31.502Z,-5.84
2023-01-29T05:37:22.946Z,-5.84
2023-01-29T05:38:15.308Z,-5.84
2023-01-29T05:39:06.950Z,-5.84
2023-01-29T05:39:58.467Z,-5.86
2023-01-29T05:40:50.107Z,-5.85
2023-01-29T05:41:41.914Z,-5.83
2023-01-29T05:42:33.517Z,-5.82
2023-01-29T05:43:25.210Z,-5.80
2023-01-29T05:44:16.828Z,-5.79
2023-01-29T05:45:09.208Z,-5.79
2023-01-29T05:46:01.692Z,-5.76
2023-01-29T05:46:53.346Z,-5.76
2023-01-29T05:47:46.242Z,-5.73
2023-01-29T05:48:37.762Z,-5.76
2023-01-29T05:49:29.457Z,-5.75
2023-01-29T05:50:20.891Z,-5.73
2023-01-29T05:51:12.334Z,-5.71
2023-01-29T05:52:04.186Z,-5.71
2023-01-29T05:52:57.972Z,-5.70
2023-01-29T05:53:49.410Z,-5.69
2023-01-29T05:54:40.864Z,-5.69
2023-01-29T05:55:32.296Z,-5.70
2023-01-29T05:56:25.235Z,-5.72
2023-01-29T05:57:16.642Z,-5.71
2023-01-29T05:58:08.113Z,-5.70
2023-01-29T05:58:59.537Z,-5.69
2023-01-29T05:59:50.948Z,-5.68
2023-01-29T06:00:42.460Z,-5.66
2023-01-29T06:01:34.247Z,-5.66
2023-01-29T06:02:25.789Z,-5.64
2023-01-29T06:03:17.489Z,-5.64
2023-01-29T06:04:09.190Z,-5.63
2023-01-29T06:05:00.969Z,-5.64
2023-01-29T06:05:52.621Z,-5.62
2023-01-29T06:06:44.304Z,-5.61
2023-01-29T06:07:45.402Z,-5.60
2023-01-29T06:08:37.374Z,-5.58
2023-01-29T06:09:29.466Z,-5.57
2023-01-29T06:10:21.313Z,-5.58
2023-01-29T06:11:14.436Z,-5.56
2023-01-29T06:12:07.995Z,-5.58
2023-01-29T06:12:59.766Z,-5.57
2023-01-29T06:13:51.663Z,-5.56
2023-01-29T06:14:43.335Z,-5.56
2023-01-29T06:15:34.888Z,-5.55
2023-01-29T06:16:26.680Z,-5.56
2023-01-29T06:17:18.129Z,-5.55
2023-01-29T06:18:09.577Z,-5.56
2023-01-29T06:19:01.249Z,-5.59
2023-01-29T06:20:10.093Z,-5.60
2023-01-29T06:21:02.833Z,-5.56
2023-01-29T06:21:54.436Z,-5.57
2023-01-29T06:22:46.440Z,-5.57
2023-01-29T06:23:38.706Z,-5.58
2023-01-29T06:24:30.244Z,-5.57
2023-01-29T06:25:21.744Z,-5.55
2023-01-29T06:26:15.456Z,-5.55
2023-01-29T06:27:06.939Z,-5.57
2023-01-29T06:27:59.629Z,-5.55
2023-01-29T06:28:58.479Z,-5.56
2023-01-29T06:29:50.196Z,-5.57
2023-01-29T06:30:44.267Z,-5.60
2023-01-29T06:31:39.741Z,-5.63
2023-01-29T06:32:31.842Z,-5.64
2023-01-29T06:33:23.519Z,-5.64
2023-01-29T06:34:15.308Z,-5.65
2023-01-29T06:35:08.767Z,-5.64
2023-01-29T06:36:02.228Z,-5.63
2023-01-29T06:36:53.751Z,-5.64
2023-01-29T06:37:45.206Z,-5.63
2023-01-29T06:38:36.868Z,-5.63
2023-01-29T06:39:28.514Z,-5.59
2023-01-29T06:40:20.321Z,-5.56
2023-01-29T06:41:16.116Z,-5.55
2023-01-29T06:42:08.502Z,-5.54
2023-01-29T06:43:03.196Z,-5.50
2023-01-29T06:43:54.598Z,-5.47
2023-01-29T06:44:46.013Z,-5.42
2023-01-29T06:45:37.801Z,-5.38
2023-01-29T06:46:29.302Z,-5.31
2023-01-29T06:47:21.127Z,-5.29
2023-01-29T06:48:13.545Z,-5.23
2023-01-29T06:49:04.958Z,-5.19
2023-01-29T06:49:56.368Z,-5.17
2023-01-29T06:50:49.442Z,-5.14
2023-01-29T06:51:40.854Z,-5.12
2023-01-29T06:52:32.408Z,-5.10
2023-01-29T06:53:24.876Z,-5.08
2023-01-29T06:54:16.324Z,-5.05
2023-01-29T06:55:08.402Z,-5.02
2023-01-29T06:56:00.150Z,-5.04
2023-01-29T06:56:52.118Z,-5.08
2023-01-29T06:57:43.591Z,-5.03
2023-01-29T06:58:39.023Z,-5.05
2023-01-29T06:59:30.852Z,-5.08
2023-01-29T07:00:22.454Z,-5.12
2023-01-29T07:01:29.267Z,-5.14
2023-01-29T07:02:26.056Z,-5.11
2023-01-29T07:03:17.647Z,-5.13
2023-01-29T07:04:09.293Z,-5.11
2023-01-29T07:05:00.728Z,-5.11
2023-01-29T07:05:53.028Z,-5.10
2023-01-29T07:06:44.699Z,-5.08
2023-01-29T07:07:36.878Z,-5.10
2023-01-29T07:08:28.491Z,-5.10
2023-01-29T07:09:20.078Z,-5.10
2023-01-29T07:10:11.604Z,-5.10
2023-01-29T07:11:03.355Z,-5.12
2023-01-29T07:11:54.912Z,-5.11
2023-01-29T07:12:46.698Z,-5.11
2023-01-29T07:13:38.183Z,-5.10
2023-01-29T07:14:29.782Z,-5.10
2023-01-29T07:15:41.669Z,-5.04
2023-01-29T07:16:34.171Z,-5.00
2023-01-29T07:17:25.729Z,-4.97
2023-01-29T07:18:17.252Z,-4.92
2023-01-29T07:19:08.817Z,-4.89
2023-01-29T07:20:00.206Z,-4.85
2023-01-29T07:20:51.928Z,-4.81
2023-01-29T07:21:43.553Z,-4.77
2023-01-29T07:22:34.992Z,-4.72
2023-01-29T07:23:26.908Z,-4.70
2023-01-29T07:24:19.362Z,-4.66
2023-01-29T07:25:10.970Z,-4.63
2023-01-29T07:26:04.391Z,-4.59
2023-01-29T07:26:56.028Z,-4.56
2023-01-29T07:27:47.614Z,-4.50
2023-01-29T07:28:40.228Z,-4.49
2023-01-29T07:29:31.728Z,-4.43
2023-01-29T07:30:23.360Z,-4.38
2023-01-29T07:31:15.414Z,-4.32
2023-01-29T07:32:07.881Z,-4.28
2023-01-29T07:33:02.539Z,-4.25
2023-01-29T07:33:54.037Z,-4.20
2023-01-29T07:34:45.529Z,-4.16
2023-01-29T07:35:39.667Z,-4.09
2023-01-29T07:36:31.332Z,-4.03
2023-01-29T07:37:22.806Z,-3.96
2023-01-29T07:38:15.305Z,-3.94
2023-01-29T07:39:06.914Z,-3.93
2023-01-29T07:39:58.836Z,-3.91
2023-01-29T07:40:52.610Z,-3.90
2023-01-29T07:41:44.091Z,-3.89
2023-01-29T07:42:44.145Z,-3.84
2023-01-29T07:43:35.844Z,-3.81
2023-01-29T07:44:27.317Z,-3.79
2023-01-29T07:45:18.955Z,-3.77
2023-01-29T07:46:10.731Z,-3.74
2023-01-29T07:47:02.443Z,-3.66
2023-01-29T07:47:55.556Z,-3.61
2023-01-29T07:48:47.057Z,-3.57
2023-01-29T07:49:40.618Z,-3.55
2023-01-29T07:50:34.590Z,-3.51
2023-01-29T07:51:26.265Z,-3.48
2023-01-29T07:52:20.775Z,-3.46
2023-01-29T07:53:15.125Z,-3.44
2023-01-29T07:54:06.661Z,-3.42
2023-01-29T07:54:58.251Z,-3.38
2023-01-29T07:55:50.058Z,-3.34
2023-01-29T07:56:41.482Z,-3.31
2023-01-29T07:57:32.912Z,-3.31
2023-01-29T07:58:24.472Z,-3.28
2023-01-29T07:59:16.144Z,-3.28
2023-01-29T08:00:09.006Z,-3.28
2023-01-29T08:01:07.845Z,-3.24
2023-01-29T08:01:59.385Z,-3.24
2023-01-29T08:02:51.099Z,-3.26
2023-01-29T08:03:42.708Z,-3.26
2023-01-29T08:04:35.701Z,-3.24
2023-01-29T08:05:27.190Z,-3.21
2023-01-29T08:06:19.214Z,-3.23
2023-01-29T08:07:10.615Z,-3.22
2023-01-29T08:08:06.929Z,-3.21
2023-01-29T08:08:59.685Z,-3.22
2023-01-29T08:09:51.161Z,-3.21
2023-01-29T08:10:42.733Z,-3.21
2023-01-29T08:11:34.569Z,-3.22
2023-01-29T08:12:26.063Z,-3.23
2023-01-29T08:13:17.480Z,-3.18
2023-01-29T08:14:09.325Z,-3.17
2023-01-29T08:15:01.126Z,-3.13
2023-01-29T08:15:52.555Z,-3.09
2023-01-29T08:16:44.263Z,-3.06
2023-01-29T08:17:36.885Z,-3.04
2023-01-29T08:18:32.778Z,-3.04
2023-01-29T08:19:24.292Z,-3.00
2023-01-29T08:20:16.318Z,-2.97
2023-01-29T08:21:08.161Z,-2.96
2023-01-29T08:21:59.574Z,-2.96
2023-01-29T08:23:01.928Z,-3.01
2023-01-29T08:23:53.820Z,-2.99
2023-01-29T08:24:53.765Z,-3.00
2023-01-29T08:25:51.553Z,-3.00
2023-01-29T08:26:43.181Z,-3.02
2023-01-29T08:27:34.798Z,-3.04
2023-01-29T08:28:26.367Z,-3.00
2023-01-29T08:29:17.960Z,-2.99
2023-01-29T08:30:10.864Z,-3.02
2023-01-29T08:31:02.340Z,-3.00
2023-01-29T08:31:56.159Z,-3.01
2023-01-29T08:32:47.619Z,-2.98
2023-01-29T08:33:39.572Z,-2.97
2023-01-29T08:34:31.175Z,-2.96
2023-01-29T08:35:23.129Z,-2.94
2023-01-29T08:36:15.880Z,-2.93
2023-01-29T08:37:08.362Z,-2.95
2023-01-29T08:38:03.287Z,-2.93
2023-01-29T08:38:54.754Z,-2.92
2023-01-29T08:39:46.177Z,-2.90
2023-01-29T08:40:37.826Z,-2.90
2023-01-29T08:41:30.241Z,-2.88
2023-01-29T08:42:21.678Z,-2.88
2023-01-29T08:43:14.696Z,-2.87
2023-01-29T08:44:06.451Z,-2.88
2023-01-29T08:44:58.059Z,-2.86
2023-01-29T08:45:49.593Z,-2.87
2023-01-29T08:46:41.149Z,-2.85
2023-01-29T08:47:32.661Z,-2.91
2023-01-29T08:48:25.124Z,-2.89
2023-01-29T08:49:16.540Z,-2.86
2023-01-29T08:50:08.711Z,-2.84
2023-01-29T08:51:02.459Z,-2.84
2023-01-29T08:51:56.881Z,-2.80
2023-01-29T08:52:48.506Z,-2.76
2023-01-29T08:53:40.138Z,-2.74
2023-01-29T08:54:31.614Z,-2.73
2023-01-29T08:55:23.205Z,-2.71
2023-01-29T08:56:16.298Z,-2.70
2023-01-29T08:57:07.758Z,-2.73
2023-01-29T08:57:59.202Z,-2.74
2023-01-29T08:58:50.678Z,-2.70
2023-01-29T08:59:42.093Z,-2.67
2023-01-29T09:00:34.926Z,-2.61
2023-01-29T09:01:26.561Z,-2.57
2023-01-29T09:02:18.359Z,-2.54
2023-01-29T09:03:09.987Z,-2.54
2023-01-29T09:04:01.841Z,-2.55
2023-01-29T09:04:53.363Z,-2.56
2023-01-29T09:05:46.624Z,-2.56
2023-01-29T09:06:38.036Z,-2.50
2023-01-29T09:07:29.682Z,-2.47
2023-01-29T09:08:21.239Z,-2.51
2023-01-29T09:09:12.876Z,-2.46
2023-01-29T09:10:04.696Z,-2.46
2023-01-29T09:10:59.674Z,-2.48
2023-01-29T09:11:51.165Z,-2.46
2023-01-29T09:12:43.236Z,-2.41
2023-01-29T09:13:34.984Z,-2.38
2023-01-29T09:14:27.591Z,-2.37
2023-01-29T09:15:19.500Z,-2.34
2023-01-29T09:16:11.291Z,-2.33
2023-01-29T09:17:02.753Z,-2.30
2023-01-29T09:17:54.589Z,-2.26
2023-01-29T09:18:46.439Z,-2.26
2023-01-29T09:19:38.081Z,-2.24
2023-01-29T09:20:29.557Z,-2.26
2023-01-29T09:21:21.119Z,-2.17
2023-01-29T09:22:12.811Z,-2.17
2023-01-29T09:23:10.308Z,-2.16
2023-01-29T09:24:02.000Z,-2.16
2023-01-29T09:24:54.526Z,-2.13
2023-01-29T09:25:46.653Z,-2.12
2023-01-29T09:26:40.256Z,-2.08
2023-01-29T09:27:31.806Z,-2.06
2023-01-29T09:28:23.621Z,-2.01
2023-01-29T09:29:15.213Z,-1.96
2023-01-29T09:30:07.334Z,-1.93
2023-01-29T09:31:02.447Z,-1.90
2023-01-29T09:31:54.253Z,-1.87
2023-01-29T09:32:54.415Z,-1.85
2023-01-29T09:33:46.415Z,-1.89
2023-01-29T09:34:38.137Z,-1.80
2023-01-29T09:35:29.691Z,-1.78
2023-01-29T09:36:21.163Z,-1.76
2023-01-29T09:37:12.803Z,-1.78
2023-01-29T09:38:04.341Z,-1.75
2023-01-29T09:38:55.858Z,-1.71
2023-01-29T09:39:47.358Z,-1.70
2023-01-29T09:41:02.967Z,-1.64
2023-01-29T09:42:12.501Z,-1.58
2023-01-29T09:43:13.109Z,-1.58
2023-01-29T09:44:19.969Z,-1.60
2023-01-29T09:45:24.657Z,-1.56
2023-01-29T09:46:28.430Z,-1.50
2023-01-29T09:47:23.980Z,-1.43
2023-01-29T09:48:16.480Z,-1.41
2023-01-29T09:49:23.329Z,-1.44
2023-01-29T09:50:22.037Z,-1.43
2023-01-29T09:51:33.519Z,-1.46
2023-01-29T09:52:34.659Z,-1.44
2023-01-29T09:53:32.524Z,-1.37
2023-01-29T09:54:37.275Z,-1.36
2023-01-29T09:55:35.213Z,-1.29
2023-01-29T09:56:29.192Z,-1.23
2023-01-29T09:57:39.548Z,-1.22
2023-01-29T09:58:38.590Z,-1.27
2023-01-29T09:59:32.272Z,-1.29
2023-01-29T10:00:33.296Z,-1.25
2023-01-29T10:01:37.058Z,-1.16
2023-01-29T10:02:54.961Z,-1.20
2023-01-29T10:04:45.199Z,-1.12
2023-01-29T10:06:11.423Z,-1.04
2023-01-29T10:07:27.714Z,-0.96
2023-01-29T10:08:40.494Z,-0.93
2023-01-29T10:09:41.444Z,-0.98
2023-01-29T10:10:35.857Z,-0.90
2023-01-29T10:11:33.195Z,-0.83
2023-01-29T10:12:43.197Z,-0.74
2023-01-29T10:14:04.270Z,-0.67
2023-01-29T10:15:13.909Z,-0.54
2023-01-29T10:16:30.162Z,-0.67
2023-01-29T10:17:34.033Z,-0.58
2023-01-29T10:18:47.834Z,-0.56
2023-01-29T10:19:42.037Z,-0.50
2023-01-29T10:20:52.040Z,-0.46
2023-01-29T10:22:00.686Z,-0.43
2023-01-29T10:23:13.517Z,-0.42
2023-01-29T10:24:33.316Z,-0.36
2023-01-29T10:25:25.894Z,-0.37
2023-01-29T10:26:23.367Z,-0.49
2023-01-29T10:27:17.204Z,-0.37
2023-01-29T10:28:34.088Z,-0.30
2023-01-29T10:29:31.265Z,-0.22
2023-01-29T10:30:41.027Z,-0.30
2023-01-29T10:31:40.058Z,-0.30
2023-01-29T10:32:35.871Z,-0.27
2023-01-29T10:33:49.581Z,-0.24
2023-01-29T10:35:00.236Z,-0.13
2023-01-29T10:36:00.463Z,-0.06
2023-01-29T10:36:54.971Z,-0.15
2023-01-29T10:37:46.516Z,-0.22
2023-01-29T10:38:46.947Z,-0.36
2023-01-29T10:39:38.464Z,-0.29
2023-01-29T10:40:46.882Z,-0.34
2023-01-29T10:41:41.550Z,-0.34
2023-01-29T10:42:57.144Z,-0.38
2023-01-29T10:43:55.614Z,-0.40
2023-01-29T10:45:18.470Z,-0.60
2023-01-29T10:46:38.901Z,-0.63
2023-01-29T10:47:42.428Z,-0.64
2023-01-29T10:48:48.789Z,-0.68
2023-01-29T10:49:42.403Z,-0.69
2023-01-29T10:50:57.588Z,-0.80
2023-01-29T10:52:13.475Z,-0.78
2023-01-29T10:53:22.876Z,-0.73
2023-01-29T10:54:38.233Z,-0.67
2023-01-29T10:55:56.857Z,-0.69
2023-01-29T10:57:06.761Z,-0.72
2023-01-29T10:58:36.793Z,-0.64
2023-01-29T10:59:53.260Z,-0.55
2023-01-29T11:00:45.474Z,-0.56
2023-01-29T11:01:37.378Z,-0.47
2023-01-29T11:02:28.897Z,-0.42
2023-01-29T11:03:30.154Z,-0.42
2023-01-29T11:04:21.977Z,-0.40
2023-01-29T11:05:41.985Z,-0.40
2023-01-29T11:06:36.240Z,-0.36
2023-01-29T11:07:29.806Z,-0.36
2023-01-29T11:08:29.093Z,-0.35
2023-01-29T11:09:34.594Z,-0.37
2023-01-29T11:10:26.380Z,-0.39
2023-01-29T11:11:22.426Z,-0.61
2023-01-29T11:12:21.628Z,-0.57
2023-01-29T11:13:16.390Z,-0.59
2023-01-29T11:14:16.891Z,-0.48
2023-01-29T11:15:30.535Z,-0.39
2023-01-29T11:16:22.427Z,-0.35
2023-01-29T11:17:19.042Z,-0.37
2023-01-29T11:18:16.050Z,-0.39
2023-01-29T11:19:07.604Z,-0.29
2023-01-29T11:19:59.670Z,-0.20
2023-01-29T11:21:02.637Z,-0.13
2023-01-29T11:21:59.723Z,-0.16
2023-01-29T11:22:55.694Z,-0.08
2023-01-29T11:23:47.611Z,-0.05
2023-01-29T11:24:39.326Z,-0.06
2023-01-29T11:25:35.172Z,0.00
2023-01-29T11:26:26.936Z,0.08
2023-01-29T11:27:29.430Z,0.19
2023-01-29T11:28:41.123Z,0.31
2023-01-29T11:29:45.750Z,0.36
2023-01-29T11:30:39.467Z,0.32
2023-01-29T11:31:40.038Z,0.41
2023-01-29T11:32:35.307Z,0.38
2023-01-29T11:33:26.864Z,0.44
2023-01-29T11:34:22.185Z,0.43
2023-01-29T11:35:16.410Z,0.50
2023-01-29T11:36:38.501Z,0.54
2023-01-29T11:37:39.015Z,0.51
2023-01-29T11:38:30.936Z,0.53
2023-01-29T11:39:24.362Z,0.40
2023-01-29T11:40:19.045Z,0.48
2023-01-29T11:41:22.328Z,0.49
2023-01-29T11:42:21.891Z,0.48
2023-01-29T11:43:21.010Z,0.55
2023-01-29T11:44:41.058Z,0.67
2023-01-29T11:45:35.129Z,0.76
2023-01-29T11:46:26.718Z,0.75
2023-01-29T11:47:27.857Z,0.74
2023-01-29T11:48:22.629Z,0.72
2023-01-29T11:49:33.035Z,0.75
2023-01-29T11:50:28.212Z,0.76
2023-01-29T11:51:29.199Z,0.83
2023-01-29T11:52:24.524Z,0.89
2023-01-29T11:53:43.819Z,0.88
2023-01-29T11:54:51.529Z,0.85
2023-01-29T11:55:50.906Z,0.84
2023-01-29T11:56:46.891Z,0.83
2023-01-29T11:57:43.069Z,0.90
2023-01-29T11:58:37.541Z,0.93
2023-01-29T11:59:40.002Z,0.94
2023-01-29T12:00:35.663Z,0.92
2023-01-29T12:01:36.279Z,0.97
2023-01-29T12:02:45.952Z,1.01
2023-01-29T12:03:54.040Z,0.88
2023-01-29T12:04:47.174Z,0.80
2023-01-29T12:05:52.565Z,0.80
2023-01-29T12:06:49.479Z,0.89
2023-01-29T12:07:44.121Z,0.91
2023-01-29T12:08:38.729Z,0.94
2023-01-29T12:09:31.360Z,0.97
2023-01-29T12:10:37.955Z,1.02
2023-01-29T12:11:33.154Z,1.00
2023-01-29T12:12:41.634Z,0.94
2023-01-29T12:13:36.202Z,0.94
2023-01-29T12:14:37.181Z,0.90
2023-01-29T12:15:28.676Z,0.89
2023-01-29T12:16:33.185Z,0.91
2023-01-29T12:17:30.814Z,0.94
2023-01-29T12:18:37.295Z,0.99
2023-01-29T12:19:39.507Z,1.04
2023-01-29T12:20:39.185Z,0.98
2023-01-29T12:21:46.156Z,0.94
2023-01-29T12:22:57.854Z,0.98
2023-01-29T12:24:18.053Z,1.01
2023-01-29T12:25:22.747Z,0.99
2023-01-29T12:26:30.651Z,1.06
2023-01-29T12:27:40.979Z,1.13
2023-01-29T12:28:48.068Z,1.19
2023-01-29T12:29:45.831Z,1.16
2023-01-29T12:30:51.983Z,1.10
2023-01-29T12:31:53.235Z,1.05
2023-01-29T12:33:09.955Z,1.01